createdAt,value
2022-10-08T00:01:41.399Z,8.40
2022-10-08T00:04:12.621Z,6.57
2022-10-08T00:06:42.007Z,7.03
2022-10-08T00:09:10.986Z,9.37
2022-10-08T00:11:41.525Z,4.27
2022-10-08T00:14:12.046Z,6.80
2022-10-08T00:16:42.933Z,5.07
2022-10-08T00:19:15.578Z,4.47
2022-10-08T00:21:46.341Z,5.43
2022-10-08T00:24:17.412Z,7.53
2022-10-08T00:26:47.338Z,6.87
2022-10-08T00:29:20.335Z,7.03
2022-10-08T00:31:51.298Z,7.13
2022-10-08T00:34:23.626Z,8.37
2022-10-08T00:36:55.761Z,6.07
2022-10-08T00:39:26.399Z,8.10
2022-10-08T00:41:56.890Z,8.20
2022-10-08T00:44:54.540Z,10.20
2022-10-08T00:47:41.380Z,9.30
2022-10-08T00:50:16.378Z,6.23
2022-10-08T00:52:48.184Z,8.33
2022-10-08T00:55:20.494Z,6.83
2022-10-08T00:57:49.485Z,9.60
2022-10-08T01:00:23.338Z,8.83
2022-10-08T01:02:52.486Z,6.47
2022-10-08T01:05:29.698Z,6.43
2022-10-08T01:08:03.425Z,8.00
2022-10-08T01:10:40.381Z,7.10
2022-10-08T01:13:20.962Z,8.47
2022-10-08T01:16:02.555Z,6.87
2022-10-08T01:18:42.598Z,8.43
2022-10-08T01:21:15.138Z,6.93
2022-10-08T01:24:09.561Z,8.13
2022-10-08T01:26:51.029Z,7.13
2022-10-08T01:29:25.812Z,7.20
2022-10-08T01:32:02.200Z,9.50
2022-10-08T01:34:38.470Z,7.13
2022-10-08T01:37:13.778Z,7.90
2022-10-08T01:39:45.496Z,8.90
2022-10-08T01:42:15.049Z,7.40
2022-10-08T01:44:49.805Z,7.90
2022-10-08T01:47:24.378Z,7.47
2022-10-08T01:49:58.297Z,7.67
2022-10-08T01:52:30.899Z,8.50
2022-10-08T01:55:03.240Z,6.93
2022-10-08T01:57:35.313Z,8.07
2022-10-08T02:00:09.498Z,6.97
2022-10-08T02:02:39.223Z,9.23
2022-10-08T02:05:08.934Z,5.83
2022-10-08T02:07:40.447Z,9.20
2022-10-08T02:15:29.627Z,9.40
2022-10-08T02:18:08.398Z,7.73
2022-10-08T02:20:41.481Z,6.20
2022-10-08T02:23:15.186Z,9.47
2022-10-08T02:25:49.925Z,9.80
2022-10-08T02:28:24.395Z,6.57
2022-10-08T02:31:01.799Z,7.83
2022-10-08T02:33:36.993Z,7.67
2022-10-08T02:36:09.799Z,8.73
2022-10-08T02:38:42.500Z,6.27
2022-10-08T02:41:14.928Z,9.83
2022-10-08T02:43:48.706Z,7.70
2022-10-08T02:46:21.824Z,8.80
2022-10-08T02:48:56.538Z,7.40
2022-10-08T02:51:28.117Z,6.87
2022-10-08T02:53:58.979Z,7.83
2022-10-08T02:56:33.867Z,8.37
2022-10-08T02:59:04.065Z,8.00
2022-10-08T03:01:41.077Z,8.47
2022-10-08T03:04:17.878Z,9.27
2022-10-08T03:06:49.198Z,8.67
2022-10-08T03:09:20.234Z,8.60
2022-10-08T03:11:49.994Z,7.00
2022-10-08T03:14:21.678Z,9.43
2022-10-08T03:16:52.820Z,7.40
2022-10-08T03:19:22.738Z,10.53
2022-10-08T03:21:55.278Z,7.73
2022-10-08T03:24:24.975Z,8.37
2022-10-08T03:26:57.271Z,9.50
2022-10-08T03:29:26.598Z,8.93
2022-10-08T03:31:57.178Z,10.73
2022-10-08T03:34:27.926Z,8.37
2022-10-08T03:36:57.118Z,8.00
2022-10-08T03:39:26.291Z,10.27
2022-10-08T03:41:55.408Z,7.63
2022-10-08T03:44:24.523Z,6.83
2022-10-08T03:46:53.658Z,7.73
2022-10-08T03:49:24.381Z,7.67
2022-10-08T03:51:53.427Z,8.67
2022-10-08T03:54:22.578Z,7.47
2022-10-08T03:56:51.751Z,9.87
2022-10-08T03:59:21.002Z,9.23
2022-10-08T04:01:50.036Z,8.30
2022-10-08T04:04:23.128Z,11.63
2022-10-08T04:06:56.078Z,12.97
2022-10-08T04:09:25.334Z,9.27
2022-10-08T04:11:54.328Z,10.27
2022-10-08T04:14:23.599Z,8.37
2022-10-08T04:16:53.019Z,8.03
2022-10-08T04:19:22.177Z,8.93
2022-10-08T04:21:51.259Z,8.63
2022-10-08T04:24:21.833Z,10.23
2022-10-08T04:26:50.817Z,9.23
2022-10-08T04:29:19.978Z,9.43
2022-10-08T04:31:48.918Z,9.50
2022-10-08T04:34:18.879Z,8.53
2022-10-08T04:36:47.937Z,10.33
2022-10-08T04:39:17.954Z,9.03
2022-10-08T04:41:48.422Z,7.80
2022-10-08T04:44:17.488Z,9.47
2022-10-08T04:46:46.581Z,10.17
2022-10-08T04:49:16.227Z,10.20
2022-10-08T04:51:45.378Z,9.30
2022-10-08T04:54:14.539Z,11.53
2022-10-08T04:56:43.610Z,9.30
2022-10-08T04:59:14.437Z,11.30
2022-10-08T05:01:43.657Z,8.67
2022-10-08T05:04:12.819Z,9.13
2022-10-08T05:06:41.898Z,9.63
2022-10-08T05:09:11.490Z,10.43
2022-10-08T05:11:40.566Z,10.60
2022-10-08T05:14:10.338Z,10.00
2022-10-08T05:16:40.879Z,12.53
2022-10-08T05:19:10.918Z,11.40
2022-10-08T05:21:40.988Z,11.00
2022-10-08T05:24:13.338Z,10.70
2022-10-08T05:26:57.980Z,10.23
2022-10-08T05:29:29.153Z,8.37
2022-10-08T05:32:00.040Z,10.50
2022-10-08T05:34:29.679Z,12.00
2022-10-08T05:36:58.691Z,10.53
2022-10-08T05:39:28.047Z,10.03
2022-10-08T05:41:57.130Z,10.30
2022-10-08T05:44:26.306Z,11.50
2022-10-08T05:46:55.676Z,9.73
2022-10-08T05:49:26.660Z,14.27
2022-10-08T05:51:55.998Z,11.50
2022-10-08T05:54:25.236Z,12.07
2022-10-08T05:56:55.798Z,10.57
2022-10-08T05:59:27.560Z,9.50
2022-10-08T06:01:56.806Z,11.87
2022-10-08T06:04:27.400Z,12.63
2022-10-08T06:06:56.659Z,11.40
2022-10-08T06:09:25.574Z,10.90
2022-10-08T06:11:55.774Z,10.37
2022-10-08T06:14:27.420Z,11.70
2022-10-08T06:16:57.640Z,10.13
2022-10-08T06:19:28.121Z,11.17
2022-10-08T06:22:01.294Z,10.13
2022-10-08T06:24:30.901Z,11.00
2022-10-08T06:27:02.778Z,13.33
2022-10-08T06:29:34.198Z,14.27
2022-10-08T06:32:04.357Z,11.83
2022-10-08T06:34:36.247Z,13.43
2022-10-08T06:37:07.299Z,13.77
2022-10-08T06:39:39.815Z,12.33
2022-10-08T06:42:11.190Z,11.13
2022-10-08T06:44:40.431Z,11.93
2022-10-08T06:47:09.932Z,12.57
2022-10-08T06:49:41.385Z,12.50
2022-10-08T06:52:12.359Z,12.23
2022-10-08T06:54:41.620Z,14.63
2022-10-08T06:57:10.762Z,12.87
2022-10-08T06:59:40.997Z,11.40
2022-10-08T07:02:11.995Z,15.30
2022-10-08T07:04:42.914Z,13.07
2022-10-08T07:07:14.266Z,12.53
2022-10-08T07:09:43.601Z,11.87
2022-10-08T07:12:12.658Z,14.97
2022-10-08T07:14:42.719Z,12.13
2022-10-08T07:17:11.890Z,12.83
2022-10-08T07:19:45.570Z,12.70
2022-10-08T07:22:15.828Z,13.73
2022-10-08T07:24:45.103Z,12.37
2022-10-08T07:27:14.526Z,13.27
2022-10-08T07:29:44.185Z,13.53
2022-10-08T07:32:13.448Z,14.17
2022-10-08T07:34:45.818Z,12.10
2022-10-08T07:37:15.208Z,13.07
2022-10-08T07:39:47.516Z,13.37
2022-10-08T07:42:17.026Z,14.47
2022-10-08T07:44:46.028Z,11.97
2022-10-08T07:47:15.379Z,14.93
2022-10-08T07:49:46.158Z,12.87
2022-10-08T07:52:15.557Z,12.20
2022-10-08T07:54:45.668Z,13.80
2022-10-08T07:57:14.926Z,13.07
2022-10-08T07:59:43.858Z,17.63
2022-10-08T08:02:14.367Z,16.47
2022-10-08T08:04:44.994Z,16.20
2022-10-08T08:07:14.638Z,14.73
2022-10-08T08:09:43.838Z,13.17
2022-10-08T08:12:13.100Z,16.53
2022-10-08T08:14:43.160Z,13.00
2022-10-08T08:17:12.434Z,15.60
2022-10-08T08:19:42.078Z,15.57
2022-10-08T08:22:12.760Z,12.97
2022-10-08T08:24:43.960Z,15.27
2022-10-08T08:27:13.419Z,11.97
2022-10-08T08:29:42.759Z,14.07
2022-10-08T08:32:11.944Z,18.20
2022-10-08T08:34:42.458Z,15.77
2022-10-08T08:37:13.138Z,15.17
2022-10-08T08:39:42.262Z,14.83
2022-10-08T08:42:25.318Z,15.43
2022-10-08T08:45:00.988Z,14.17
2022-10-08T08:47:35.938Z,14.37
2022-10-08T08:50:10.219Z,12.13
2022-10-08T08:52:43.660Z,14.50
2022-10-08T08:55:16.698Z,15.57
2022-10-08T08:57:55.539Z,14.93
2022-10-08T09:00:29.100Z,16.13
2022-10-08T09:03:03.782Z,15.00
2022-10-08T09:05:36.313Z,13.77
2022-10-08T09:08:14.486Z,13.70
2022-10-08T09:10:48.286Z,14.87
2022-10-08T09:13:23.059Z,13.83
2022-10-08T09:15:54.218Z,14.63
2022-10-08T09:18:23.699Z,15.83
2022-10-08T09:20:57.079Z,15.07
2022-10-08T09:23:28.866Z,14.30
2022-10-08T09:26:09.840Z,14.57
2022-10-08T09:28:56.766Z,15.07
2022-10-08T09:31:35.905Z,14.60
2022-10-08T09:34:18.479Z,14.07
2022-10-08T09:36:50.446Z,15.50
2022-10-08T09:39:22.686Z,14.27
2022-10-08T09:42:14.386Z,13.70
2022-10-08T09:44:45.933Z,15.60
2022-10-08T09:47:18.458Z,12.97
2022-10-08T09:50:03.308Z,13.73
2022-10-08T09:52:35.904Z,16.03
2022-10-08T09:55:12.771Z,14.97
2022-10-08T09:57:55.467Z,15.10
2022-10-08T10:00:28.868Z,16.80
2022-10-08T10:03:00.958Z,14.57
2022-10-08T10:05:32.647Z,16.83
2022-10-08T10:08:01.998Z,17.53
2022-10-08T10:10:36.366Z,15.37
2022-10-08T10:13:11.506Z,16.40
2022-10-08T10:15:45.354Z,16.00
2022-10-08T10:18:18.118Z,21.17
2022-10-08T10:20:51.308Z,17.23
2022-10-08T10:23:24.267Z,16.00
2022-10-08T10:26:04.177Z,17.10
2022-10-08T10:28:42.000Z,19.50
2022-10-08T10:31:15.937Z,18.47
2022-10-08T10:33:52.086Z,16.40
2022-10-08T10:36:22.727Z,17.50
2022-10-08T10:38:57.600Z,18.63
2022-10-08T10:41:35.689Z,16.67
2022-10-08T10:44:08.219Z,18.77
2022-10-08T10:46:43.578Z,16.33
2022-10-08T10:49:16.739Z,16.20
2022-10-08T10:52:05.244Z,15.23
2022-10-08T10:54:49.338Z,17.90
2022-10-08T10:57:32.426Z,21.10
2022-10-08T11:00:07.390Z,16.73
2022-10-08T11:02:45.087Z,17.07
2022-10-08T11:05:23.818Z,15.57
2022-10-08T11:08:10.387Z,20.10
2022-10-08T11:10:59.866Z,18.40
2022-10-08T11:13:42.199Z,25.43
2022-10-08T11:16:32.907Z,17.23
2022-10-08T11:19:09.096Z,18.30
2022-10-08T11:21:52.947Z,17.67
2022-10-08T11:24:52.566Z,16.67
2022-10-08T11:27:31.659Z,15.53
2022-10-08T11:30:12.483Z,18.43
2022-10-08T11:32:43.041Z,14.33
2022-10-08T11:35:24.145Z,17.43
2022-10-08T11:38:03.656Z,14.70
2022-10-08T11:40:36.978Z,16.30
2022-10-08T11:43:12.935Z,14.87
2022-10-08T11:45:46.437Z,16.00
2022-10-08T11:48:33.718Z,17.53
2022-10-08T11:51:31.100Z,14.70
2022-10-08T11:54:26.561Z,15.40
2022-10-08T11:57:13.703Z,13.43
2022-10-08T11:59:45.774Z,13.30
2022-10-08T12:02:26.989Z,14.07
2022-10-08T12:04:58.219Z,14.33
2022-10-08T12:07:35.570Z,14.83
2022-10-08T12:10:31.535Z,13.93
2022-10-08T12:13:30.138Z,15.30
2022-10-08T12:16:05.199Z,12.40
2022-10-08T12:18:54.339Z,15.93
2022-10-08T12:21:51.580Z,11.33
2022-10-08T12:24:56.855Z,12.63
2022-10-08T12:27:38.348Z,15.27
2022-10-08T12:30:10.987Z,13.13
2022-10-08T12:32:58.557Z,11.67
2022-10-08T12:35:33.221Z,13.57
2022-10-08T12:38:19.617Z,11.93
2022-10-08T12:40:59.062Z,13.33
2022-10-08T12:43:38.287Z,12.97
2022-10-08T12:46:20.099Z,11.47
2022-10-08T12:48:53.302Z,12.87
2022-10-08T12:51:30.858Z,11.10
2022-10-08T12:54:00.379Z,11.03
2022-10-08T12:56:32.334Z,11.90
2022-10-08T12:59:05.118Z,14.93
2022-10-08T13:01:34.861Z,12.83
2022-10-08T13:04:18.019Z,12.07
2022-10-08T13:06:49.774Z,13.00
2022-10-08T13:09:30.480Z,12.93
2022-10-08T13:12:03.574Z,12.10
2022-10-08T13:14:36.061Z,10.83
2022-10-08T13:17:05.720Z,11.70
2022-10-08T13:19:36.699Z,9.70
2022-10-08T13:22:09.487Z,9.13
2022-10-08T13:24:43.300Z,11.10
2022-10-08T13:27:27.848Z,11.37
2022-10-08T13:29:57.379Z,12.43
2022-10-08T13:32:28.086Z,12.40
2022-10-08T13:35:00.239Z,13.00
2022-10-08T13:37:34.038Z,10.97
2022-10-08T13:40:05.409Z,9.50
2022-10-08T13:42:37.026Z,12.47
2022-10-08T13:45:14.576Z,24.43
2022-10-08T13:47:44.037Z,12.33
2022-10-08T13:50:14.527Z,21.90
2022-10-08T13:52:48.000Z,13.07
2022-10-08T13:55:27.110Z,19.93
2022-10-08T13:57:56.932Z,42.97
2022-10-08T14:00:26.779Z,37.07
2022-10-08T14:02:56.080Z,16.97
2022-10-08T14:05:26.933Z,12.20
2022-10-08T14:08:00.504Z,13.70
2022-10-08T14:10:31.072Z,13.30
2022-10-08T14:13:00.327Z,18.40
2022-10-08T14:15:29.680Z,12.47
2022-10-08T14:17:58.939Z,12.00
2022-10-08T14:20:28.294Z,10.37
2022-10-08T14:22:59.027Z,11.47
2022-10-08T14:25:31.507Z,9.80
2022-10-08T14:28:00.924Z,13.33
2022-10-08T14:30:30.419Z,10.00
2022-10-08T14:32:59.618Z,13.53
2022-10-08T14:35:29.828Z,10.70
2022-10-08T14:38:00.428Z,9.43
2022-10-08T14:40:29.959Z,10.90
2022-10-08T14:42:59.153Z,11.07
2022-10-08T14:45:28.851Z,12.20
2022-10-08T14:47:58.157Z,18.63
2022-10-08T14:50:28.170Z,12.03
2022-10-08T14:52:57.526Z,10.90
2022-10-08T14:55:28.997Z,11.10
2022-10-08T14:57:58.138Z,11.80
2022-10-08T15:00:28.639Z,11.37
2022-10-08T15:02:57.934Z,12.03
2022-10-08T15:05:28.079Z,14.17
2022-10-08T15:07:58.238Z,13.40
2022-10-08T15:10:28.738Z,10.70
2022-10-08T15:12:57.706Z,9.77
2022-10-08T15:15:27.427Z,11.60
2022-10-08T15:18:02.811Z,11.33
2022-10-08T15:20:34.598Z,11.70
2022-10-08T15:23:05.625Z,11.80
2022-10-08T15:25:36.334Z,9.97
2022-10-08T15:28:06.410Z,11.77
2022-10-08T15:30:35.838Z,11.57
2022-10-08T15:33:06.355Z,11.10
2022-10-08T15:35:38.736Z,10.93
2022-10-08T15:38:08.041Z,10.23
2022-10-08T15:40:38.679Z,11.37
2022-10-08T15:43:11.140Z,10.33
2022-10-08T15:45:44.009Z,13.50
2022-10-08T15:48:14.438Z,11.07
2022-10-08T15:50:43.660Z,12.17
2022-10-08T15:53:16.807Z,11.47
2022-10-08T15:55:57.579Z,11.37
2022-10-08T15:58:49.025Z,13.10
2022-10-08T16:01:17.788Z,11.03
2022-10-08T16:04:00.517Z,12.17
2022-10-08T16:06:34.118Z,11.83
2022-10-08T16:09:03.958Z,11.90
2022-10-08T16:11:36.749Z,11.73
2022-10-08T16:14:09.414Z,14.17
2022-10-08T16:16:39.354Z,11.93
2022-10-08T16:19:11.037Z,11.10
2022-10-08T16:21:44.407Z,11.37
2022-10-08T16:24:13.871Z,12.93
2022-10-08T16:26:47.038Z,15.30
2022-10-08T16:29:17.944Z,12.50
2022-10-08T16:31:49.401Z,14.27
2022-10-08T16:34:20.500Z,12.73
2022-10-08T16:36:51.906Z,11.37
2022-10-08T16:39:24.658Z,13.23
2022-10-08T16:41:56.946Z,14.40
2022-10-08T16:44:26.158Z,11.80
2022-10-08T16:46:57.120Z,12.50
2022-10-08T16:49:28.174Z,13.13
2022-10-08T16:51:59.653Z,13.20
2022-10-08T16:54:30.685Z,12.83
2022-10-08T16:57:05.004Z,13.73
2022-10-08T16:59:34.556Z,13.87
2022-10-08T17:02:05.743Z,44.43
2022-10-08T17:04:39.363Z,22.00
2022-10-08T17:07:09.258Z,15.33
2022-10-08T17:09:40.182Z,14.50
2022-10-08T17:12:12.898Z,14.50
2022-10-08T17:14:43.405Z,16.97
2022-10-08T17:17:15.159Z,17.20
2022-10-08T17:19:45.433Z,19.90
2022-10-08T17:22:16.850Z,22.70
2022-10-08T17:24:47.000Z,22.03
2022-10-08T17:27:18.479Z,24.20
2022-10-08T17:29:49.534Z,24.90
2022-10-08T17:32:19.531Z,23.60
2022-10-08T17:34:48.959Z,24.70
2022-10-08T17:37:18.679Z,23.00
2022-10-08T17:39:48.015Z,23.40
2022-10-08T17:42:19.968Z,24.87
2022-10-08T17:44:50.496Z,24.43
2022-10-08T17:47:20.319Z,24.13
2022-10-08T17:49:50.082Z,24.87
2022-10-08T17:52:19.494Z,28.60
2022-10-08T17:54:48.813Z,24.27
2022-10-08T17:57:19.518Z,27.60
2022-10-08T17:59:49.900Z,28.67
2022-10-08T18:02:19.001Z,28.37
2022-10-08T18:04:48.873Z,25.87
2022-10-08T18:07:19.067Z,30.87
2022-10-08T18:09:51.040Z,31.60
2022-10-08T18:12:22.297Z,25.50
2022-10-08T18:14:51.635Z,30.27
2022-10-08T18:17:22.048Z,29.93
2022-10-08T18:19:51.457Z,27.63
2022-10-08T18:22:22.506Z,31.87
2022-10-08T18:24:54.633Z,34.10
2022-10-08T18:27:29.587Z,30.87
2022-10-08T18:30:00.714Z,24.40
2022-10-08T18:32:31.267Z,30.50
2022-10-08T18:35:00.985Z,38.23
2022-10-08T18:37:30.846Z,26.00
2022-10-08T18:40:00.300Z,27.23
2022-10-08T18:42:30.818Z,27.07
2022-10-08T18:45:00.334Z,33.53
2022-10-08T18:47:32.070Z,25.30
2022-10-08T18:50:01.338Z,28.10
2022-10-08T18:52:34.426Z,33.10
2022-10-08T18:55:05.338Z,27.43
2022-10-08T18:57:36.076Z,26.37
2022-10-08T19:00:06.808Z,27.90
2022-10-08T19:02:36.877Z,25.10
2022-10-08T19:05:06.951Z,23.57
2022-10-08T19:07:36.978Z,25.67
2022-10-08T19:10:07.282Z,25.97
2022-10-08T19:12:41.202Z,29.57
2022-10-08T19:15:11.886Z,34.33
2022-10-08T19:17:42.110Z,25.43
2022-10-08T19:20:11.817Z,25.20
2022-10-08T19:22:40.928Z,23.90
2022-10-08T19:25:11.026Z,27.73
2022-10-08T19:27:43.534Z,21.53
2022-10-08T19:30:14.978Z,28.53
2022-10-08T19:32:45.156Z,21.93
2022-10-08T19:35:16.234Z,24.50
2022-10-08T19:37:46.498Z,24.73
2022-10-08T19:40:17.095Z,23.90
2022-10-08T19:42:48.318Z,19.20
2022-10-08T19:45:17.854Z,23.17
2022-10-08T19:47:47.038Z,21.43
2022-10-08T19:50:16.728Z,17.40
2022-10-08T19:52:51.000Z,20.37
2022-10-08T19:55:21.140Z,17.93
2022-10-08T19:57:52.165Z,25.00
2022-10-08T20:00:22.057Z,21.43
2022-10-08T20:02:51.749Z,16.27
2022-10-08T20:05:21.460Z,19.43
2022-10-08T20:07:50.700Z,20.43
2022-10-08T20:10:20.606Z,17.63
2022-10-08T20:12:52.321Z,19.57
2022-10-08T20:15:23.139Z,22.17
2022-10-08T20:17:52.427Z,19.73
2022-10-08T20:20:32.821Z,18.03
2022-10-08T20:23:02.964Z,17.43
2022-10-08T20:25:32.336Z,15.17
2022-10-08T20:28:02.955Z,22.03
2022-10-08T20:30:32.799Z,16.73
2022-10-08T20:33:03.579Z,18.13
2022-10-08T20:35:33.127Z,20.40
2022-10-08T20:38:02.243Z,22.20
2022-10-08T20:40:31.527Z,18.63
2022-10-08T20:43:02.428Z,20.70
2022-10-08T20:45:31.719Z,17.70
2022-10-08T20:48:00.819Z,18.07
2022-10-08T20:50:29.998Z,19.10
2022-10-08T20:52:59.208Z,16.87
2022-10-08T20:55:28.686Z,20.97
2022-10-08T20:57:57.843Z,14.70
2022-10-08T21:00:29.566Z,16.07
2022-10-08T21:02:58.619Z,17.27
2022-10-08T21:05:28.154Z,16.30
2022-10-08T21:07:57.327Z,15.17
2022-10-08T21:10:27.287Z,19.13
2022-10-08T21:12:56.299Z,19.43
2022-10-08T21:15:25.433Z,17.53
2022-10-08T21:17:55.947Z,17.77
2022-10-08T21:20:27.407Z,18.03
2022-10-08T21:22:56.540Z,16.77
2022-10-08T21:25:27.178Z,20.87
2022-10-08T21:27:56.278Z,15.63
2022-10-08T21:30:25.423Z,17.73
2022-10-08T21:32:56.080Z,20.33
2022-10-08T21:35:25.247Z,20.13
2022-10-08T21:37:54.580Z,20.13
2022-10-08T21:40:24.047Z,16.60
2022-10-08T21:42:53.226Z,17.00
2022-10-08T21:45:22.426Z,17.20
2022-10-08T21:47:51.740Z,17.37
2022-10-08T21:50:23.788Z,16.90
2022-10-08T21:52:55.446Z,13.93
2022-10-08T21:55:24.946Z,14.97
2022-10-08T21:57:55.908Z,14.77
2022-10-08T22:00:35.652Z,12.33
2022-10-08T22:03:05.298Z,12.90
2022-10-08T22:05:36.175Z,18.87
2022-10-08T22:08:05.828Z,14.87
2022-10-08T22:10:38.602Z,11.70
2022-10-08T22:13:07.776Z,14.63
2022-10-08T22:15:36.959Z,14.63
2022-10-08T22:18:06.360Z,14.33
2022-10-08T22:20:38.759Z,14.87
2022-10-08T22:23:08.238Z,16.87
2022-10-08T22:25:37.329Z,13.43
2022-10-08T22:28:06.741Z,12.23
2022-10-08T22:30:36.797Z,14.43
2022-10-08T22:33:06.639Z,12.73
2022-10-08T22:35:36.114Z,14.03
2022-10-08T22:38:07.184Z,17.57
2022-10-08T22:40:36.266Z,15.53
2022-10-08T22:43:05.687Z,10.87
2022-10-08T22:45:39.847Z,12.33
2022-10-08T22:48:09.110Z,13.63
2022-10-08T22:50:39.375Z,12.27
2022-10-08T22:53:10.030Z,16.70
2022-10-08T22:55:44.099Z,11.03
2022-10-08T22:58:14.707Z,12.43
2022-10-08T23:00:45.030Z,10.33
2022-10-08T23:03:14.274Z,11.23
2022-10-08T23:05:43.380Z,12.17
2022-10-08T23:08:15.058Z,9.77
2022-10-08T23:10:44.266Z,12.23
2022-10-08T23:13:13.427Z,8.50
2022-10-08T23:15:42.619Z,9.30
2022-10-08T23:18:12.135Z,8.70
2022-10-08T23:20:41.246Z,8.97
2022-10-08T23:23:10.501Z,5.47
2022-10-08T23:25:41.787Z,9.10
2022-10-08T23:28:10.868Z,6.40
2022-10-08T23:30:43.778Z,7.90
2022-10-08T23:33:12.919Z,9.30
2022-10-08T23:35:42.126Z,6.57
2022-10-08T23:38:11.418Z,8.07
2022-10-08T23:40:42.218Z,8.50
2022-10-08T23:43:11.548Z,9.80
2022-10-08T23:45:40.786Z,6.03
2022-10-08T23:48:10.192Z,6.33
2022-10-08T23:50:40.158Z,7.47
2022-10-08T23:53:09.468Z,6.10
2022-10-08T23:55:38.608Z,6.47
2022-10-08T23:58:10.081Z,8.23
